Time;durP1;ratioP1;P1;durP2;ratioP2;P2;SDS_P1;SDS_P2;PMS_P1;PMS_P2;Temp;Humidity;BMP_temperature;BMP_pressure;BME280_temperature;BME280_humidity;BME280_pressure;Samples;Min_cycle;Max_cycle;Signal;HPM_P1;HPM_P2
2024/03/24 00:00:09;;;;;;;;;;;6.50;99.90;;;6.47;72.31;99379.81;5101626;28;19949;-80
2024/03/24 00:02:39;;;;;;;;;;;6.40;99.90;;;6.47;72.18;99374.50;5102128;28;20019;-80
2024/03/24 00:05:07;;;;;;;;;;;6.40;99.90;;;6.57;72.15;99387.28;5101804;28;20305;-80
2024/03/24 00:07:36;;;;;;;;;;;6.50;99.90;;;6.69;72.19;99382.97;5084735;28;20026;-79
2024/03/24 00:10:02;;;;;;;;;;;6.50;99.90;;;6.77;71.95;99380.03;5079547;28;19975;-80
2024/03/24 00:12:29;;;;;;;;;;;6.60;99.90;;;6.84;71.55;99374.72;5061297;28;20388;-80
2024/03/24 00:14:56;;;;;;;;;;;6.70;99.90;;;6.71;71.37;99370.31;5099202;28;19928;-80
2024/03/24 00:17:23;;;;;;;;;;;6.60;99.90;;;6.68;71.73;99366.22;5084343;28;19985;-80
2024/03/24 00:19:50;;;;;;;;;;;6.60;99.90;;;6.68;71.53;99360.94;5100467;28;19931;-79
2024/03/24 00:22:17;;;;;;;;;;;6.60;99.90;;;6.71;71.49;99365.81;5080901;28;20014;-80
2024/03/24 00:24:44;;;;;;;;;;;6.60;99.90;;;6.76;71.40;99372.31;5099015;28;19970;-80
2024/03/24 00:27:11;;;;;;;;;;;6.60;99.90;;;6.82;71.03;99363.50;5080469;28;19924;-79
2024/03/24 00:29:38;;;;;;;;;;;6.60;99.90;;;6.83;71.19;99357.19;5098376;28;19959;-80
2024/03/24 00:32:05;;;;;;;;;;;6.60;99.90;;;6.78;71.12;99365.75;5092281;28;19932;-80
2024/03/24 00:34:32;;;;;;;;;;;6.60;99.90;;;6.82;71.19;99350.25;5080401;28;20453;-80
2024/03/24 00:36:59;;;;;;;;;;;6.60;99.90;;;6.82;70.89;99363.50;5099160;28;19924;-80
2024/03/24 00:39:25;;;;;;;;;;;6.60;99.90;;;6.76;70.90;99351.94;5098375;28;19958;-80
2024/03/24 00:41:54;;;;;;;;;;;6.60;99.90;;;6.75;71.11;99350.31;5049859;28;20295;-80
2024/03/24 00:44:20;;;;;;;;;;;6.60;99.90;;;6.59;71.75;99346.34;5099652;28;19945;-80
2024/03/24 00:46:47;;;;;;;;;;;6.50;99.90;;;6.55;72.04;99350.44;5118289;28;20318;-80
2024/03/24 00:49:13;;;;;;;;;;;6.40;99.90;;;6.64;72.15;99335.91;5100192;28;19930;-80
2024/03/24 00:51:41;;;;;;;;;;;6.50;99.90;;;6.68;71.74;99326.50;5099792;28;19930;-80
2024/03/24 00:54:09;;;;;;;;;;;6.50;99.90;;;6.67;71.54;99329.38;5118457;28;20018;-80
2024/03/24 00:56:37;;;;;;;;;;;6.50;99.90;;;6.44;72.46;99319.31;5079306;28;19924;-80
2024/03/24 00:59:05;;;;;;;;;;;6.40;99.90;;;6.50;72.51;99321.13;5096300;28;19924;-80
2024/03/24 01:01:33;;;;;;;;;;;6.40;99.90;;;6.51;72.24;99327.22;5096660;28;19931;-80
2024/03/24 01:04:00;;;;;;;;;;;6.40;99.90;;;6.57;72.47;99329.03;5098256;28;20011;-80
2024/03/24 01:06:27;;;;;;;;;;;6.50;99.90;;;6.41;72.56;99320.56;5098537;28;19928;-80
2024/03/24 01:08:53;;;;;;;;;;;6.40;99.90;;;6.41;72.69;99320.56;5104269;28;20368;-80
2024/03/24 01:11:20;;;;;;;;;;;6.40;99.90;;;6.47;72.86;99323.38;5100628;28;19924;-80
2024/03/24 01:13:46;;;;;;;;;;;6.40;99.90;;;6.52;72.60;99318.25;5099757;28;19923;-80
2024/03/24 01:16:15;;;;;;;;;;;6.40;99.90;;;6.42;72.82;99318.72;5117706;28;19924;-80
2024/03/24 01:18:41;;;;;;;;;;;6.40;99.90;;;6.44;72.55;99314.84;5098133;28;20329;-80
2024/03/24 01:21:09;;;;;;;;;;;6.40;99.90;;;6.56;72.89;99314.16;5096442;28;19924;-80
2024/03/24 01:23:35;;;;;;;;;;;6.40;99.90;;;6.63;72.55;99314.91;5097622;28;19938;-80
2024/03/24 01:26:02;;;;;;;;;;;6.50;99.90;;;6.67;72.10;99313.47;5098897;28;20003;-80
2024/03/24 01:28:28;;;;;;;;;;;6.50;99.90;;;6.64;72.64;99303.31;5114981;28;19924;-80
2024/03/24 01:30:56;;;;;;;;;;;6.50;99.90;;;6.66;72.12;99294.13;5119593;28;20382;-80
2024/03/24 01:33:23;;;;;;;;;;;6.50;99.90;;;6.61;72.62;99288.66;5105866;28;19931;-80
2024/03/24 01:35:52;;;;;;;;;;;6.50;99.90;;;6.48;72.45;99285.28;5080942;28;19931;-80
2024/03/24 01:38:18;;;;;;;;;;;6.40;99.90;;;6.48;72.66;99278.13;5080223;28;19924;-80
2024/03/24 01:40:49;;;;;;;;;;;6.40;99.90;;;6.58;72.54;99281.13;5100481;28;19990;-80
2024/03/24 01:43:16;;;;;;;;;;;6.70;99.90;;;6.62;72.44;99284.97;5122517;28;19928;-80
2024/03/24 01:45:44;;;;;;;;;;;6.50;99.90;;;6.55;72.80;99276.28;5098203;28;19939;-80
2024/03/24 01:48:11;;;;;;;;;;;6.50;99.90;;;6.62;72.83;99269.06;5080351;28;19993;-80
2024/03/24 01:50:40;;;;;;;;;;;6.50;99.90;;;6.53;72.96;99261.59;5098360;28;20354;-80
2024/03/24 01:53:08;;;;;;;;;;;6.40;99.90;;;6.51;73.04;99266.31;5113995;28;19928;-80
2024/03/24 01:55:35;;;;;;;;;;;6.40;99.90;;;6.39;73.53;99252.94;5112646;28;20306;-80
2024/03/24 01:58:02;;;;;;;;;;;6.40;99.90;;;6.54;73.37;99255.28;5083591;28;19924;-79
2024/03/24 02:00:30;;;;;;;;;;;6.40;99.90;;;6.47;73.36;99262.47;5118764;28;19924;-80
2024/03/24 02:02:56;;;;;;;;;;;6.40;99.90;;;6.43;73.48;99256.78;5099749;28;19928;-80
2024/03/24 02:05:25;;;;;;;;;;;6.60;99.90;;;6.45;74.12;99250.25;5083592;28;19923;-80
2024/03/24 02:07:53;;;;;;;;;;;6.40;99.90;;;6.48;74.17;99235.75;5101802;28;19924;-80
2024/03/24 02:10:23;;;;;;;;;;;6.40;99.90;;;6.50;74.26;99246.16;5087676;28;19924;-80
2024/03/24 02:12:49;;;;;;;;;;;6.40;99.90;;;6.48;74.64;99238.41;5122875;28;19931;-80
2024/03/24 02:15:17;;;;;;;;;;;6.40;99.90;;;6.45;74.95;99233.56;5104620;28;20023;-80
2024/03/24 02:17:43;;;;;;;;;;;6.40;99.90;;;6.48;74.80;99227.81;5103231;28;19931;-80
2024/03/24 02:20:12;;;;;;;;;;;6.40;99.90;;;6.59;75.01;99227.13;5087741;28;19994;-80
2024/03/24 02:22:42;;;;;;;;;;;6.50;99.90;;;6.59;74.70;99213.09;5088655;28;20290;-80
2024/03/24 02:25:10;;;;;;;;;;;6.50;99.90;;;6.62;74.55;99207.34;5084046;28;19980;-80
2024/03/24 02:27:36;;;;;;;;;;;6.50;99.90;;;6.60;74.64;99210.22;5071167;28;19924;-80
2024/03/24 02:30:04;;;;;;;;;;;6.50;99.90;;;6.58;74.62;99196.34;5122361;28;19985;-80
2024/03/24 02:32:31;;;;;;;;;;;6.50;99.90;;;6.56;74.85;99201.06;5097933;28;19924;-80
2024/03/24 02:34:59;;;;;;;;;;;6.50;99.90;;;6.61;74.92;99200.44;5101187;28;20306;-80
2024/03/24 02:37:25;;;;;;;;;;;6.50;99.90;;;6.52;75.04;99202.53;5104615;28;20438;-80
2024/03/24 02:39:54;;;;;;;;;;;6.50;99.90;;;6.48;74.93;99193.38;5117152;28;20337;-80
2024/03/24 02:42:22;;;;;;;;;;;6.50;99.90;;;6.52;75.46;99191.13;5102820;28;20367;-80
2024/03/24 02:44:49;;;;;;;;;;;6.50;99.90;;;6.51;75.30;99187.66;5099724;28;19928;-80
2024/03/24 02:47:15;;;;;;;;;;;6.50;99.90;;;6.56;75.33;99173.78;5099302;28;19985;-80
2024/03/24 02:49:43;;;;;;;;;;;6.50;99.90;;;6.53;75.49;99180.31;5082171;28;20383;-80
2024/03/24 02:52:09;;;;;;;;;;;6.50;99.90;;;6.46;75.60;99179.56;5099381;28;19924;-80
2024/03/24 02:54:37;;;;;;;;;;;6.40;99.90;;;6.56;75.40;99161.34;5099419;28;19951;-80
2024/03/24 02:57:04;;;;;;;;;;;6.50;99.90;;;6.51;75.45;99155.88;5099129;28;19931;-80
2024/03/24 02:59:32;;;;;;;;;;;6.50;99.90;;;6.40;75.75;99149.47;5099177;28;19924;-80
2024/03/24 03:01:58;;;;;;;;;;;6.40;99.90;;;6.43;75.92;99164.09;5099017;28;20410;-80
2024/03/24 03:04:27;;;;;;;;;;;6.40;99.90;;;6.47;76.06;99164.47;5109280;28;19924;-80
2024/03/24 03:06:54;;;;;;;;;;;6.40;99.90;;;6.38;76.60;99163.94;5121067;27;19938;-80
2024/03/24 03:09:22;;;;;;;;;;;6.40;99.90;;;6.43;76.46;99156.16;5119998;27;20378;-80
2024/03/24 03:11:48;;;;;;;;;;;6.40;99.90;;;6.52;76.06;99149.56;5120459;28;19924;-80
2024/03/24 03:14:18;;;;;;;;;;;6.50;99.90;;;6.33;76.04;99155.81;5120535;28;19924;-80
2024/03/24 03:16:45;;;;;;;;;;;6.40;99.90;;;6.13;76.42;99151.50;5104447;28;20457;-80
2024/03/24 03:19:13;;;;;;;;;;;6.20;99.90;;;6.16;76.87;99150.28;5099456;28;19924;-80
2024/03/24 03:21:40;;;;;;;;;;;6.20;99.90;;;6.21;76.67;99152.28;5098242;28;19999;-80
2024/03/24 03:24:08;;;;;;;;;;;6.20;99.90;;;6.25;77.02;99148.19;5099758;28;19931;-80
2024/03/24 03:26:35;;;;;;;;;;;6.20;99.90;;;6.28;76.78;99153.03;5098008;28;19931;-80
2024/03/24 03:29:02;;;;;;;;;;;6.30;99.90;;;6.26;77.00;99137.34;5099582;28;19931;-80
2024/03/24 03:31:30;;;;;;;;;;;6.30;99.90;;;6.35;76.75;99138.72;5097117;28;20414;-80
2024/03/24 03:33:58;;;;;;;;;;;6.30;99.90;;;6.41;76.48;99144.97;5098590;28;20409;-80
2024/03/24 03:36:24;;;;;;;;;;;6.40;99.90;;;6.20;76.30;99140.88;5112368;28;19946;-80
2024/03/24 03:38:52;;;;;;;;;;;6.30;99.90;;;6.32;77.09;99148.91;5117655;28;19924;-80
2024/03/24 03:41:20;;;;;;;;;;;6.30;99.90;;;6.33;76.76;99132.00;5101664;28;19923;-80
2024/03/24 03:43:48;;;;;;;;;;;6.30;99.90;;;6.23;76.82;99124.53;5113200;28;20318;-80
2024/03/24 03:46:15;;;;;;;;;;;6.30;99.90;;;6.30;77.02;99129.81;5099081;28;19924;-80
2024/03/24 03:48:45;;;;;;;;;;;6.30;99.90;;;6.39;77.26;99126.66;5099168;28;20406;-80
2024/03/24 03:51:17;;;;;;;;;;;6.30;99.90;;;6.45;76.88;99122.34;5101540;28;20367;-80
2024/03/24 03:53:47;;;;;;;;;;;6.40;99.90;;;6.48;76.53;99123.72;5118241;28;19930;-80
2024/03/24 03:56:13;;;;;;;;;;;6.40;99.90;;;6.30;77.07;99111.28;5118491;28;19923;-80
2024/03/24 03:58:40;;;;;;;;;;;6.30;99.90;;;6.38;76.89;99117.06;5119471;28;19923;-80
2024/03/24 04:01:06;;;;;;;;;;;6.40;99.90;;;6.44;76.90;99107.44;5112461;28;19973;-80
2024/03/24 04:03:35;;;;;;;;;;;6.40;99.90;;;6.45;76.84;99107.25;5100702;28;19924;-80
2024/03/24 04:06:05;;;;;;;;;;;6.40;99.90;;;6.42;76.61;99096.28;5100342;28;19924;-80
2024/03/24 04:08:32;;;;;;;;;;;6.40;99.90;;;6.28;76.92;99098.22;5119026;28;19931;-80
2024/03/24 04:10:58;;;;;;;;;;;6.30;99.90;;;6.08;77.41;99097.59;5111288;28;19955;-80
2024/03/24 04:13:26;;;;;;;;;;;6.20;99.90;;;6.09;78.00;99093.91;5097026;28;20315;-80
2024/03/24 04:15:52;;;;;;;;;;;6.10;99.90;;;6.13;78.19;99089.81;5098850;28;19932;-80
2024/03/24 04:18:21;;;;;;;;;;;6.20;99.90;;;6.12;78.06;99096.13;5080367;28;19931;-80
2024/03/24 04:20:47;;;;;;;;;;;6.10;99.90;;;6.22;77.88;99085.88;5097944;28;20023;-80
2024/03/24 04:23:17;;;;;;;;;;;6.20;99.90;;;6.25;78.11;99090.75;5099204;28;19924;-80
2024/03/24 04:25:43;;;;;;;;;;;6.30;99.90;;;6.17;78.38;99086.50;5097232;28;19924;-80
2024/03/24 04:28:12;;;;;;;;;;;6.20;99.90;;;6.22;78.24;99087.72;5098113;28;19924;-80
2024/03/24 04:30:39;;;;;;;;;;;6.30;99.90;;;6.18;77.87;99089.97;5096319;28;19924;-80
2024/03/24 04:33:06;;;;;;;;;;;6.20;99.90;;;6.19;77.75;99095.03;5080344;28;19924;-80
2024/03/24 04:35:32;;;;;;;;;;;6.20;99.90;;;6.28;77.88;99089.47;5097797;28;20288;-80
2024/03/24 04:37:59;;;;;;;;;;;6.30;99.90;;;6.19;77.85;99083.66;5097998;28;19924;-80
2024/03/24 04:40:28;;;;;;;;;;;6.30;99.90;;;6.17;77.87;99089.16;5087618;28;20018;-80
2024/03/24 04:42:59;;;;;;;;;;;6.20;99.90;;;6.21;78.23;99081.59;5102417;28;19954;-80
2024/03/24 04:45:29;;;;;;;;;;;6.30;99.90;;;6.21;78.31;99084.25;5098330;28;19924;-80
2024/03/24 04:47:57;;;;;;;;;;;6.30;99.90;;;6.30;78.40;99076.84;5097834;28;19924;-79
2024/03/24 04:50:24;;;;;;;;;;;6.30;99.90;;;6.24;78.02;99088.28;5097659;28;19930;-80
2024/03/24 04:52:52;;;;;;;;;;;6.20;99.90;;;6.28;78.50;99084.19;5097861;28;19997;-80
2024/03/24 04:55:19;;;;;;;;;;;6.30;99.90;;;6.24;78.59;99083.81;5115863;28;20019;-80
2024/03/24 04:57:50;;;;;;;;;;;6.30;99.90;;;6.31;78.29;99081.13;5095078;28;19935;-80
2024/03/24 05:00:18;;;;;;;;;;;6.30;99.90;;;6.34;78.17;99070.06;5095781;28;19924;-80
2024/03/24 05:02:46;;;;;;;;;;;6.30;99.90;;;6.24;78.47;99075.84;5095266;28;20013;-80
2024/03/24 05:05:13;;;;;;;;;;;6.30;99.90;;;6.24;78.29;99073.22;5095565;28;19932;-80
2024/03/24 05:07:39;;;;;;;;;;;6.30;99.90;;;6.22;78.51;99077.13;5081904;28;20023;-80
2024/03/24 05:10:07;;;;;;;;;;;6.30;99.90;;;6.33;78.26;99073.75;5058760;28;19924;-80
2024/03/24 05:12:34;;;;;;;;;;;6.30;99.90;;;6.31;78.28;99070.53;5058552;28;19925;-80
2024/03/24 05:15:05;;;;;;;;;;;6.30;99.90;;;6.32;77.96;99077.44;5058320;28;20324;-80
2024/03/24 05:17:31;;;;;;;;;;;6.30;99.90;;;6.30;78.16;99071.56;5054778;28;19925;-80
2024/03/24 05:20:00;;;;;;;;;;;6.30;99.90;;;6.27;78.01;99079.91;5054479;28;19929;-80
2024/03/24 05:22:27;;;;;;;;;;;6.30;99.90;;;6.25;78.25;99082.00;5055210;28;19932;-80
2024/03/24 05:24:56;;;;;;;;;;;6.30;99.90;;;6.33;77.87;99081.69;5038271;28;20019;-80
2024/03/24 05:27:23;;;;;;;;;;;6.30;99.90;;;6.21;78.35;99073.66;5092561;28;19924;-80
2024/03/24 05:29:50;;;;;;;;;;;6.30;99.90;;;6.28;78.25;99084.19;5099527;28;19923;-80
2024/03/24 05:32:17;;;;;;;;;;;6.30;99.90;;;6.25;77.95;99077.50;5111878;28;19924;-80
2024/03/24 05:34:48;;;;;;;;;;;6.30;99.90;;;6.17;77.96;99065.34;5106968;28;19924;-80
2024/03/24 05:37:16;;;;;;;;;;;6.20;99.90;;;6.13;78.03;99066.78;5098219;28;19924;-80
2024/03/24 05:39:47;;;;;;;;;;;6.20;99.90;;;6.09;78.18;99067.44;5117896;28;19931;-80
2024/03/24 05:42:14;;;;;;;;;;;6.20;99.90;;;6.04;78.06;99069.94;5119239;28;19966;-80
2024/03/24 05:44:42;;;;;;;;;;;6.10;99.90;;;6.15;78.47;99070.06;5120780;28;19923;-80
2024/03/24 05:47:08;;;;;;;;;;;6.10;99.90;;;6.21;77.96;99073.66;5116305;28;19928;-80
2024/03/24 05:49:38;;;;;;;;;;;6.20;99.90;;;6.20;77.65;99072.06;5120427;28;19924;-80
2024/03/24 05:52:06;;;;;;;;;;;6.20;99.90;;;6.18;77.49;99071.44;5119711;28;20013;-80
2024/03/24 05:54:34;;;;;;;;;;;6.20;99.90;;;6.23;77.52;99071.59;5121632;28;20397;-80
2024/03/24 05:57:01;;;;;;;;;;;6.20;99.90;;;6.31;77.43;99076.63;5154524;27;19924;-80
2024/03/24 05:59:29;;;;;;;;;;;6.30;99.90;;;6.23;77.31;99081.38;5121129;28;20424;-80
2024/03/24 06:01:56;;;;;;;;;;;6.30;99.90;;;6.19;77.64;99076.50;5115944;28;20452;-80
2024/03/24 06:04:23;;;;;;;;;;;6.20;99.90;;;6.08;77.75;99079.06;5118967;28;20001;-80
2024/03/24 06:06:51;;;;;;;;;;;6.10;99.90;;;6.09;77.71;99081.47;5121528;28;19946;-80
2024/03/24 06:09:18;;;;;;;;;;;6.10;99.90;;;6.21;78.04;99091.38;5119777;28;19928;-80
2024/03/24 06:11:45;;;;;;;;;;;6.20;99.90;;;6.27;78.07;99093.97;5096437;28;19924;-80
2024/03/24 06:14:12;;;;;;;;;;;6.30;99.90;;;6.35;77.70;99108.78;5100081;28;19928;-80
2024/03/24 06:16:40;;;;;;;;;;;6.30;99.90;;;6.37;77.90;99098.78;5100670;28;20019;-80
2024/03/24 06:19:07;;;;;;;;;;;6.40;99.90;;;6.41;77.97;99113.19;5098838;28;20378;-80
2024/03/24 06:21:35;;;;;;;;;;;6.40;99.90;;;6.47;78.19;99114.16;5099802;28;19975;-80
2024/03/24 06:24:05;;;;;;;;;;;6.40;99.90;;;6.34;78.32;99120.38;5103963;28;19924;-80
2024/03/24 06:26:31;;;;;;;;;;;6.40;99.90;;;6.32;78.60;99117.16;5099599;28;20382;-80
2024/03/24 06:28:58;;;;;;;;;;;6.30;99.90;;;6.34;78.96;99110.59;5101121;28;19946;-80
2024/03/24 06:31:24;;;;;;;;;;;6.30;99.90;;;6.26;79.23;99128.59;5119127;28;20348;-80
2024/03/24 06:33:51;;;;;;;;;;;6.30;99.90;;;6.24;78.97;99125.34;5118295;28;19931;-79
2024/03/24 06:36:18;;;;;;;;;;;6.30;99.90;;;6.19;79.06;99139.22;5118390;28;19923;-79
2024/03/24 06:38:45;;;;;;;;;;;6.10;99.90;;;6.28;78.64;99142.44;5118202;28;19924;-79
2024/03/24 06:41:13;;;;;;;;;;;6.30;99.90;;;6.24;78.55;99144.69;5084046;28;19924;-79
2024/03/24 06:43:43;;;;;;;;;;;6.20;99.90;;;6.33;78.76;99146.03;5117199;28;19928;-79
2024/03/24 06:46:09;;;;;;;;;;;6.30;99.90;;;6.31;78.67;99134.06;5082259;28;19928;-79
2024/03/24 06:48:36;;;;;;;;;;;6.30;99.90;;;6.31;78.35;99121.63;5101776;28;19932;-81
2024/03/24 06:51:03;;;;;;;;;;;6.30;99.90;;;6.32;78.08;99127.75;5082656;28;19991;-81
2024/03/24 06:53:30;;;;;;;;;;;6.30;99.90;;;6.34;78.00;99128.31;5098515;28;19924;-82
2024/03/24 06:55:58;;;;;;;;;;;6.20;99.90;;;6.33;77.65;99135.44;5111083;28;19938;-82
2024/03/24 06:58:27;;;;;;;;;;;6.20;99.90;;;6.32;77.34;99138.31;5117830;28;19924;-79
2024/03/24 07:00:53;;;;;;;;;;;6.20;99.90;;;6.19;77.14;99147.97;5117678;28;19958;-79
2024/03/24 07:03:23;;;;;;;;;;;6.10;99.90;;;6.13;76.90;99150.69;5117660;28;19930;-80
2024/03/24 07:05:49;;;;;;;;;;;6.00;99.90;;;6.19;77.14;99142.69;5116063;28;20023;-79
2024/03/24 07:08:16;;;;;;;;;;;6.10;99.90;;;6.18;76.71;99137.63;5119143;28;20405;-79
2024/03/24 07:10:43;;;;;;;;;;;6.00;99.90;;;6.05;76.93;99138.53;5118573;28;20011;-79
2024/03/24 07:13:10;;;;;;;;;;;6.00;99.90;;;6.17;77.23;99142.09;5117708;28;19928;-79
2024/03/24 07:15:38;;;;;;;;;;;6.00;99.90;;;6.23;76.70;99145.72;5100340;28;19924;-80
2024/03/24 07:18:05;;;;;;;;;;;6.10;99.90;;;6.19;76.16;99150.63;5115508;28;19930;-79
2024/03/24 07:20:31;;;;;;;;;;;6.10;99.90;;;6.24;76.27;99152.63;5118652;28;19924;-79
2024/03/24 07:22:59;;;;;;;;;;;6.10;99.90;;;6.28;76.08;99153.81;5118894;28;19973;-79
2024/03/24 07:25:25;;;;;;;;;;;6.20;99.90;;;6.23;75.68;99155.50;5119157;28;19958;-79
2024/03/24 07:27:52;;;;;;;;;;;6.10;99.90;;;6.25;76.33;99156.94;5117467;28;20492;-79
2024/03/24 07:30:18;;;;;;;;;;;6.10;99.90;;;6.24;76.38;99155.28;5091316;28;20474;-78
2024/03/24 07:32:47;;;;;;;;;;;6.10;99.90;;;6.29;76.09;99155.44;5105862;28;19928;-79
2024/03/24 07:35:14;;;;;;;;;;;6.10;99.90;;;6.31;76.27;99157.91;5117748;28;19924;-79
2024/03/24 07:37:41;;;;;;;;;;;6.10;99.90;;;6.22;76.67;99153.88;5118787;28;19924;-79
2024/03/24 07:40:08;;;;;;;;;;;6.10;99.90;;;6.29;76.45;99154.63;5107533;28;19964;-79
2024/03/24 07:42:35;;;;;;;;;;;6.10;99.90;;;6.34;76.91;99146.84;5096576;28;20019;-79
2024/03/24 07:45:02;;;;;;;;;;;6.20;99.90;;;6.33;76.87;99161.94;5099336;28;20015;-79
2024/03/24 07:47:35;;;;;;;;;;;6.20;99.90;;;6.29;76.83;99163.38;5072794;28;20272;-78
2024/03/24 07:50:03;;;;;;;;;;;6.10;99.90;;;6.34;77.05;99160.09;5103153;28;19946;-79
2024/03/24 07:52:31;;;;;;;;;;;6.20;99.90;;;6.37;77.40;99159.66;5101856;28;19932;-79
2024/03/24 07:54:58;;;;;;;;;;;6.30;99.90;;;6.42;77.13;99154.53;5114505;28;19968;-79
2024/03/24 07:57:25;;;;;;;;;;;6.30;99.90;;;6.45;77.29;99159.41;5097998;28;19930;-78
2024/03/24 07:59:53;;;;;;;;;;;6.30;99.90;;;6.49;77.25;99157.94;5101289;28;19927;-80
2024/03/24 08:02:20;;;;;;;;;;;6.40;99.90;;;6.47;77.09;99162.63;5081854;28;19973;-79
2024/03/24 08:04:46;;;;;;;;;;;6.30;99.90;;;6.49;77.54;99168.56;5108370;28;20383;-79
2024/03/24 08:07:15;;;;;;;;;;;6.40;99.90;;;6.35;77.59;99172.31;5096961;28;20601;-79
2024/03/24 08:09:41;;;;;;;;;;;6.30;99.90;;;6.44;77.78;99169.19;5108209;28;19924;-80
2024/03/24 08:12:09;;;;;;;;;;;6.30;99.90;;;6.53;78.12;99171.56;5110635;28;19978;-80
2024/03/24 08:14:35;;;;;;;;;;;6.40;99.90;;;6.60;78.19;99194.31;5097083;28;19924;-80
2024/03/24 08:17:03;;;;;;;;;;;6.50;99.90;;;6.64;78.04;99205.31;5097911;28;19963;-80
2024/03/24 08:19:29;;;;;;;;;;;6.50;99.90;;;6.65;77.81;99217.50;5100394;28;19932;-82
2024/03/24 08:22:01;;;;;;;;;;;6.50;99.90;;;6.62;77.74;99199.41;5100368;28;19947;-81
2024/03/24 08:24:28;;;;;;;;;;;6.50;99.90;;;6.62;77.27;99200.19;5097676;28;20383;-81
2024/03/24 08:26:55;;;;;;;;;;;6.50;99.90;;;6.64;77.32;99187.56;5098206;28;20000;-81
2024/03/24 08:29:21;;;;;;;;;;;6.50;99.90;;;6.60;77.55;99186.38;5080764;28;20387;-81
2024/03/24 08:31:49;;;;;;;;;;;6.50;99.90;;;6.52;78.02;99194.59;5095922;28;19931;-81
2024/03/24 08:34:15;;;;;;;;;;;6.40;99.90;;;6.62;78.38;99194.91;5104116;28;19924;-82
2024/03/24 08:36:42;;;;;;;;;;;6.50;99.90;;;6.52;78.22;99202.53;5116102;28;20390;-81
2024/03/24 08:39:09;;;;;;;;;;;6.50;99.90;;;6.53;78.66;99205.97;5101472;28;19925;-81
2024/03/24 08:41:39;;;;;;;;;;;6.50;99.90;;;6.58;78.73;99201.66;5106123;28;20405;-81
2024/03/24 08:44:05;;;;;;;;;;;6.50;99.90;;;6.62;78.59;99208.16;5098654;28;20429;-81
2024/03/24 08:46:33;;;;;;;;;;;6.60;99.90;;;6.66;78.60;99193.44;5113896;28;20435;-81
2024/03/24 08:48:59;;;;;;;;;;;6.60;99.90;;;6.62;78.67;99192.25;5107620;28;19932;-81
2024/03/24 08:51:28;;;;;;;;;;;6.60;99.90;;;6.67;78.71;99195.06;5098260;28;20386;-81
2024/03/24 08:53:54;;;;;;;;;;;6.60;99.90;;;6.68;79.03;99191.38;5103617;28;20006;-81
2024/03/24 08:56:21;;;;;;;;;;;6.60;99.90;;;6.71;78.95;99184.84;5112730;28;19930;-80
2024/03/24 08:58:49;;;;;;;;;;;6.70;99.90;;;6.67;79.53;99184.47;5097548;28;19924;-81
2024/03/24 09:01:16;;;;;;;;;;;6.70;99.90;;;6.75;80.49;99177.28;5113869;28;20402;-81
2024/03/24 09:03:42;;;;;;;;;;;6.70;99.90;;;6.74;80.55;99188.91;5095561;28;19931;-82
2024/03/24 09:06:09;;;;;;;;;;;6.70;99.90;;;6.75;81.44;99186.03;5101027;28;19947;-82
2024/03/24 09:08:35;;;;;;;;;;;6.80;99.90;;;6.84;81.39;99175.97;5088348;28;19956;-81
2024/03/24 09:11:03;;;;;;;;;;;6.90;99.90;;;6.97;81.52;99175.81;5077638;28;20413;-81
2024/03/24 09:13:32;;;;;;;;;;;7.00;99.90;;;7.02;81.87;99175.97;5096755;28;19931;-81
2024/03/24 09:16:00;;;;;;;;;;;7.10;99.90;;;7.02;81.95;99175.97;5095588;28;19973;-81
2024/03/24 09:18:27;;;;;;;;;;;7.10;99.90;;;7.08;82.26;99169.81;5072322;28;19930;-81
2024/03/24 09:20:56;;;;;;;;;;;7.20;99.90;;;7.10;82.67;99170.38;5080571;28;19923;-81
2024/03/24 09:23:24;;;;;;;;;;;7.30;99.90;;;7.11;82.62;99176.50;5115763;28;19923;-85
2024/03/24 09:25:51;;;;;;;;;;;7.30;99.90;;;7.16;82.26;99166.03;5113424;28;20314;-82
2024/03/24 09:28:18;;;;;;;;;;;7.30;99.90;;;7.12;81.39;99173.63;5113268;28;19931;-81
2024/03/24 09:30:56;;;;;;;;;;;7.30;99.90;;;7.14;81.34;99157.50;5115053;28;19931;-83
2024/03/24 09:33:23;;;;;;;;;;;7.20;99.90;;;7.10;81.73;99175.69;5097494;28;19947;-80
2024/03/24 09:35:50;;;;;;;;;;;7.20;99.90;;;7.08;81.55;99164.50;5096380;28;19967;-83
2024/03/24 09:38:16;;;;;;;;;;;7.50;99.90;;;7.18;81.42;99161.34;5118490;28;19928;-82
2024/03/24 09:40:44;;;;;;;;;;;7.20;99.90;;;7.19;82.20;99168.25;5099502;28;20276;-82
2024/03/24 09:43:12;;;;;;;;;;;7.30;99.90;;;7.17;81.43;99167.66;5097380;28;19931;-81
2024/03/24 09:45:39;;;;;;;;;;;7.30;99.90;;;7.23;82.54;99162.31;5097383;28;19931;-81
2024/03/24 09:48:09;;;;;;;;;;;7.40;99.90;;;7.21;82.43;99161.69;5097514;28;19928;-80
2024/03/24 09:50:39;;;;;;;;;;;7.50;99.90;;;7.17;81.46;99163.19;5117896;28;19924;-80
2024/03/24 09:53:07;;;;;;;;;;;7.40;99.90;;;7.36;81.94;99160.50;5098397;28;19924;-81
2024/03/24 09:55:34;;;;;;;;;;;7.60;99.90;;;7.53;82.83;99150.13;5118100;28;19931;-83
2024/03/24 09:58:01;;;;;;;;;;;7.80;99.90;;;7.65;83.34;99151.78;5119725;28;20006;-80
2024/03/24 10:00:28;;;;;;;;;;;7.80;99.90;;;7.67;82.66;99152.38;5100625;28;19923;-80
2024/03/24 10:02:56;;;;;;;;;;;7.90;99.90;;;7.58;80.65;99148.41;5100273;28;20306;-80
2024/03/24 10:05:24;;;;;;;;;;;7.90;99.90;;;7.67;80.53;99143.59;5100080;28;19963;-81
2024/03/24 10:07:52;;;;;;;;;;;7.90;99.90;;;7.85;82.20;99148.03;5118169;28;19928;-80
2024/03/24 10:10:20;;;;;;;;;;;8.10;99.90;;;7.98;82.05;99134.56;5101053;28;19923;-80
2024/03/24 10:12:56;;;;;;;;;;;8.20;99.90;;;8.14;82.36;99141.88;5100530;28;20011;-80
2024/03/24 10:15:26;;;;;;;;;;;8.40;99.90;;;8.25;81.87;99135.00;5079836;28;19923;-80
2024/03/24 10:18:03;;;;;;;;;;;8.50;99.90;;;8.30;80.42;99134.31;5100080;28;19924;-80
2024/03/24 10:20:32;;;;;;;;;;;8.60;99.90;;;8.20;77.40;99125.06;5117899;28;20382;-80
2024/03/24 10:23:00;;;;;;;;;;;8.50;99.90;;;8.11;77.21;99125.63;5100959;28;19923;-80
2024/03/24 10:25:29;;;;;;;;;;;8.40;99.90;;;8.08;77.21;99121.56;5118428;28;19923;-80
2024/03/24 10:27:59;;;;;;;;;;;8.40;99.90;;;8.07;77.32;99116.47;5118537;28;19924;-80
2024/03/24 10:30:26;;;;;;;;;;;8.40;99.90;;;8.07;76.88;99119.94;5104169;28;20036;-80
2024/03/24 10:32:52;;;;;;;;;;;8.40;99.90;;;8.04;73.32;99114.28;5069273;28;20011;-80
2024/03/24 10:35:20;;;;;;;;;;;8.40;99.90;;;8.11;74.11;99121.09;5103689;28;19931;-80
2024/03/24 10:37:47;;;;;;;;;;;8.40;99.90;;;8.21;75.35;99109.94;5121209;28;19923;-80
2024/03/24 10:40:16;;;;;;;;;;;8.50;99.90;;;8.21;74.80;99124.00;5103080;28;19924;-80
2024/03/24 10:42:46;;;;;;;;;;;8.50;99.90;;;8.15;73.45;99116.13;5121919;28;19923;-80
2024/03/24 10:45:15;;;;;;;;;;;8.50;99.90;;;8.12;73.71;99124.56;5121924;27;20362;-80
2024/03/24 10:47:43;;;;;;;;;;;8.40;99.90;;;8.11;74.40;99126.41;5121986;28;19961;-80
2024/03/24 10:50:14;;;;;;;;;;;8.40;99.90;;;8.05;74.90;99135.28;5122290;28;20340;-80
2024/03/24 10:52:42;;;;;;;;;;;8.30;99.90;;;7.97;74.82;99130.31;5102853;28;20023;-80
2024/03/24 10:55:10;;;;;;;;;;;8.20;99.90;;;7.94;74.37;99128.09;5122081;28;20288;-80
2024/03/24 10:57:40;;;;;;;;;;;8.10;99.90;;;7.84;74.15;99139.25;5121633;28;19977;-80
2024/03/24 11:00:13;;;;;;;;;;;8.10;99.90;;;7.78;74.13;99136.72;5103410;28;19927;-80
2024/03/24 11:02:40;;;;;;;;;;;8.00;99.90;;;7.71;74.81;99132.31;5121120;28;19930;-80
2024/03/24 11:05:09;;;;;;;;;;;7.90;99.90;;;7.65;72.54;99132.38;5121647;28;20018;-80
2024/03/24 11:07:37;;;;;;;;;;;7.90;99.90;;;7.70;73.05;99138.63;5102716;28;19928;-80
2024/03/24 11:10:06;;;;;;;;;;;7.90;99.90;;;7.75;73.56;99140.63;5103652;28;19923;-80
2024/03/24 11:12:34;;;;;;;;;;;7.90;99.90;;;7.75;74.09;99141.41;5103204;28;19974;-80
2024/03/24 11:15:06;;;;;;;;;;;7.90;99.90;;;7.74;75.18;99141.66;5102774;28;19999;-81
2024/03/24 11:17:34;;;;;;;;;;;7.90;99.90;;;7.71;75.71;99136.78;5120723;28;19992;-80
2024/03/24 11:20:05;;;;;;;;;;;7.90;99.90;;;7.78;76.80;99121.59;5102784;28;19943;-80
2024/03/24 11:22:35;;;;;;;;;;;7.90;99.90;;;7.80;76.96;99139.94;5136996;27;19973;-80
2024/03/24 11:25:04;;;;;;;;;;;7.90;99.90;;;7.73;76.73;99132.09;5121406;28;19976;-80
2024/03/24 11:27:31;;;;;;;;;;;7.90;99.90;;;7.66;76.23;99142.81;5103870;28;19959;-80
2024/03/24 11:29:58;;;;;;;;;;;7.80;99.90;;;7.61;75.92;99147.97;5121955;28;19924;-80
2024/03/24 11:32:52;;;;;;;;;;;7.80;99.90;;;7.58;76.51;99153.72;5116128;28;19931;-80
2024/03/24 11:35:26;;;;;;;;;;;7.80;99.90;;;7.61;75.43;99160.41;5122221;28;19951;-80